sensor_id;sensor_type;location;lat;lon;timestamp;P1;durP1;ratioP1;P2;durP2;ratioP2
12844;SDS011;68700;48.534;9.196;2023-04-29T00:02:29;6.00;;;5.10;;
12844;SDS011;68700;48.534;9.196;2023-04-29T00:05:51;5.30;;;4.80;;
12844;SDS011;68700;48.534;9.196;2023-04-29T00:09:13;5.07;;;4.57;;
12844;SDS011;68700;48.534;9.196;2023-04-29T00:12:35;5.67;;;4.40;;
12844;SDS011;68700;48.534;9.196;2023-04-29T00:15:58;4.70;;;4.20;;
12844;SDS011;68700;48.534;9.196;2023-04-29T00:19:20;4.33;;;3.30;;
12844;SDS011;68700;48.534;9.196;2023-04-29T00:22:42;3.90;;;3.60;;
12844;SDS011;68700;48.534;9.196;2023-04-29T00:26:04;3.30;;;3.00;;
12844;SDS011;68700;48.534;9.196;2023-04-29T00:29:26;4.10;;;3.80;;
12844;SDS011;68700;48.534;9.196;2023-04-29T00:32:49;3.53;;;3.23;;
12844;SDS011;68700;48.534;9.196;2023-04-29T00:36:11;3.53;;;3.23;;
12844;SDS011;68700;48.534;9.196;2023-04-29T00:39:33;5.93;;;3.27;;
12844;SDS011;68700;48.534;9.196;2023-04-29T00:42:55;2.97;;;2.77;;
12844;SDS011;68700;48.534;9.196;2023-04-29T00:46:17;3.20;;;3.00;;
12844;SDS011;68700;48.534;9.196;2023-04-29T00:49:40;3.83;;;3.40;;
12844;SDS011;68700;48.534;9.196;2023-04-29T00:53:02;4.97;;;4.30;;
12844;SDS011;68700;48.534;9.196;2023-04-29T00:56:24;3.63;;;3.30;;
12844;SDS011;68700;48.534;9.196;2023-04-29T00:59:49;4.57;;;4.17;;
12844;SDS011;68700;48.534;9.196;2023-04-29T01:03:12;4.10;;;3.70;;
12844;SDS011;68700;48.534;9.196;2023-04-29T01:06:39;5.00;;;4.27;;
12844;SDS011;68700;48.534;9.196;2023-04-29T01:10:10;5.17;;;4.30;;
12844;SDS011;68700;48.534;9.196;2023-04-29T01:13:36;5.27;;;3.60;;
12844;SDS011;68700;48.534;9.196;2023-04-29T01:17:04;4.00;;;3.70;;
12844;SDS011;68700;48.534;9.196;2023-04-29T01:20:31;3.67;;;3.30;;
12844;SDS011;68700;48.534;9.196;2023-04-29T01:23:55;4.07;;;3.67;;
12844;SDS011;68700;48.534;9.196;2023-04-29T01:27:20;4.97;;;3.80;;
12844;SDS011;68700;48.534;9.196;2023-04-29T01:30:49;4.90;;;4.40;;
12844;SDS011;68700;48.534;9.196;2023-04-29T01:34:18;6.00;;;4.57;;
12844;SDS011;68700;48.534;9.196;2023-04-29T01:37:47;4.70;;;4.13;;
12844;SDS011;68700;48.534;9.196;2023-04-29T01:41:15;5.17;;;4.63;;
12844;SDS011;68700;48.534;9.196;2023-04-29T01:44:41;5.03;;;4.60;;
12844;SDS011;68700;48.534;9.196;2023-04-29T01:48:03;5.00;;;4.23;;
12844;SDS011;68700;48.534;9.196;2023-04-29T01:51:26;4.27;;;3.80;;
12844;SDS011;68700;48.534;9.196;2023-04-29T01:54:48;5.07;;;4.40;;
12844;SDS011;68700;48.534;9.196;2023-04-29T01:58:12;4.60;;;4.20;;
12844;SDS011;68700;48.534;9.196;2023-04-29T02:01:34;4.63;;;3.93;;
12844;SDS011;68700;48.534;9.196;2023-04-29T02:04:55;4.77;;;4.07;;
12844;SDS011;68700;48.534;9.196;2023-04-29T02:08:17;5.23;;;4.20;;
12844;SDS011;68700;48.534;9.196;2023-04-29T02:11:39;4.57;;;4.17;;
12844;SDS011;68700;48.534;9.196;2023-04-29T02:15:03;5.17;;;4.70;;
12844;SDS011;68700;48.534;9.196;2023-04-29T02:18:25;5.60;;;4.63;;
12844;SDS011;68700;48.534;9.196;2023-04-29T02:21:48;4.10;;;3.63;;
12844;SDS011;68700;48.534;9.196;2023-04-29T02:25:10;3.77;;;3.47;;
12844;SDS011;68700;48.534;9.196;2023-04-29T02:28:32;4.43;;;4.03;;
12844;SDS011;68700;48.534;9.196;2023-04-29T02:31:55;5.87;;;5.37;;
12844;SDS011;68700;48.534;9.196;2023-04-29T02:35:17;4.97;;;4.40;;
12844;SDS011;68700;48.534;9.196;2023-04-29T02:38:39;4.23;;;3.83;;
12844;SDS011;68700;48.534;9.196;2023-04-29T02:42:01;4.43;;;4.03;;
12844;SDS011;68700;48.534;9.196;2023-04-29T02:45:23;3.97;;;3.60;;
12844;SDS011;68700;48.534;9.196;2023-04-29T02:48:46;6.07;;;4.60;;
12844;SDS011;68700;48.534;9.196;2023-04-29T02:52:08;5.17;;;4.77;;
12844;SDS011;68700;48.534;9.196;2023-04-29T02:55:32;4.70;;;4.00;;
12844;SDS011;68700;48.534;9.196;2023-04-29T02:58:54;4.47;;;3.80;;
12844;SDS011;68700;48.534;9.196;2023-04-29T03:02:16;4.10;;;3.67;;
12844;SDS011;68700;48.534;9.196;2023-04-29T03:05:39;4.60;;;4.20;;
12844;SDS011;68700;48.534;9.196;2023-04-29T03:09:01;5.50;;;5.00;;
12844;SDS011;68700;48.534;9.196;2023-04-29T03:12:23;7.13;;;6.33;;
12844;SDS011;68700;48.534;9.196;2023-04-29T03:15:45;7.83;;;6.47;;
12844;SDS011;68700;48.534;9.196;2023-04-29T03:19:07;10.33;;;9.30;;
12844;SDS011;68700;48.534;9.196;2023-04-29T03:22:30;7.40;;;6.70;;
12844;SDS011;68700;48.534;9.196;2023-04-29T03:25:52;6.00;;;5.47;;
12844;SDS011;68700;48.534;9.196;2023-04-29T03:29:14;6.53;;;5.93;;
12844;SDS011;68700;48.534;9.196;2023-04-29T03:32:36;6.30;;;5.73;;
12844;SDS011;68700;48.534;9.196;2023-04-29T03:35:58;6.60;;;5.90;;
12844;SDS011;68700;48.534;9.196;2023-04-29T03:39:22;6.27;;;5.77;;
12844;SDS011;68700;48.534;9.196;2023-04-29T03:42:43;8.60;;;7.80;;
12844;SDS011;68700;48.534;9.196;2023-04-29T03:46:05;8.27;;;7.53;;
12844;SDS011;68700;48.534;9.196;2023-04-29T03:49:27;10.10;;;9.10;;
12844;SDS011;68700;48.534;9.196;2023-04-29T03:52:49;10.33;;;9.30;;
12844;SDS011;68700;48.534;9.196;2023-04-29T03:56:12;10.37;;;9.30;;
12844;SDS011;68700;48.534;9.196;2023-04-29T03:59:35;8.83;;;8.03;;
12844;SDS011;68700;48.534;9.196;2023-04-29T04:02:57;7.37;;;6.40;;
12844;SDS011;68700;48.534;9.196;2023-04-29T04:06:19;6.50;;;5.77;;
12844;SDS011;68700;48.534;9.196;2023-04-29T04:09:41;8.60;;;7.80;;
12844;SDS011;68700;48.534;9.196;2023-04-29T04:13:04;8.17;;;7.20;;
12844;SDS011;68700;48.534;9.196;2023-04-29T04:16:26;6.20;;;5.60;;
12844;SDS011;68700;48.534;9.196;2023-04-29T04:19:47;5.67;;;5.17;;
12844;SDS011;68700;48.534;9.196;2023-04-29T04:23:09;5.73;;;4.90;;
12844;SDS011;68700;48.534;9.196;2023-04-29T04:26:31;60.87;;;6.13;;
12844;SDS011;68700;48.534;9.196;2023-04-29T04:29:55;4.37;;;3.97;;
12844;SDS011;68700;48.534;9.196;2023-04-29T04:33:17;5.50;;;4.27;;
12844;SDS011;68700;48.534;9.196;2023-04-29T04:36:38;3.70;;;3.40;;
12844;SDS011;68700;48.534;9.196;2023-04-29T04:40:01;7.97;;;4.10;;
12844;SDS011;68700;48.534;9.196;2023-04-29T04:43:23;4.00;;;3.57;;
12844;SDS011;68700;48.534;9.196;2023-04-29T04:46:46;4.27;;;3.47;;
12844;SDS011;68700;48.534;9.196;2023-04-29T04:50:09;4.10;;;3.53;;
12844;SDS011;68700;48.534;9.196;2023-04-29T04:53:31;3.87;;;3.57;;
12844;SDS011;68700;48.534;9.196;2023-04-29T04:56:53;3.40;;;3.10;;
12844;SDS011;68700;48.534;9.196;2023-04-29T05:00:15;4.23;;;3.83;;
12844;SDS011;68700;48.534;9.196;2023-04-29T05:03:38;3.60;;;3.30;;
12844;SDS011;68700;48.534;9.196;2023-04-29T05:07:00;3.67;;;3.37;;
12844;SDS011;68700;48.534;9.196;2023-04-29T05:10:22;3.80;;;3.50;;
12844;SDS011;68700;48.534;9.196;2023-04-29T05:13:45;5.33;;;4.37;;
12844;SDS011;68700;48.534;9.196;2023-04-29T05:17:07;4.33;;;3.93;;
12844;SDS011;68700;48.534;9.196;2023-04-29T05:20:31;5.07;;;4.57;;
12844;SDS011;68700;48.534;9.196;2023-04-29T05:23:56;4.53;;;4.03;;
12844;SDS011;68700;48.534;9.196;2023-04-29T05:27:18;5.97;;;5.40;;
12844;SDS011;68700;48.534;9.196;2023-04-29T05:30:40;6.03;;;5.43;;
12844;SDS011;68700;48.534;9.196;2023-04-29T05:34:02;5.60;;;5.10;;
12844;SDS011;68700;48.534;9.196;2023-04-29T05:37:25;6.47;;;5.83;;
12844;SDS011;68700;48.534;9.196;2023-04-29T05:40:50;5.80;;;5.30;;
12844;SDS011;68700;48.534;9.196;2023-04-29T05:44:12;6.20;;;5.60;;
12844;SDS011;68700;48.534;9.196;2023-04-29T05:47:34;7.20;;;6.47;;
12844;SDS011;68700;48.534;9.196;2023-04-29T05:50:55;5.80;;;5.30;;
12844;SDS011;68700;48.534;9.196;2023-04-29T05:54:19;5.97;;;5.43;;
12844;SDS011;68700;48.534;9.196;2023-04-29T05:57:41;6.60;;;6.10;;
12844;SDS011;68700;48.534;9.196;2023-04-29T06:01:02;7.40;;;6.70;;
12844;SDS011;68700;48.534;9.196;2023-04-29T06:04:24;7.57;;;6.87;;
12844;SDS011;68700;48.534;9.196;2023-04-29T06:07:46;7.53;;;6.83;;
12844;SDS011;68700;48.534;9.196;2023-04-29T06:11:10;7.37;;;6.63;;
12844;SDS011;68700;48.534;9.196;2023-04-29T06:14:32;6.60;;;6.00;;
12844;SDS011;68700;48.534;9.196;2023-04-29T06:17:53;5.90;;;5.40;;
12844;SDS011;68700;48.534;9.196;2023-04-29T06:21:15;5.43;;;5.03;;
12844;SDS011;68700;48.534;9.196;2023-04-29T06:24:37;4.27;;;3.97;;
12844;SDS011;68700;48.534;9.196;2023-04-29T06:28:00;4.27;;;3.87;;
12844;SDS011;68700;48.534;9.196;2023-04-29T06:31:23;3.67;;;3.37;;
12844;SDS011;68700;48.534;9.196;2023-04-29T06:34:45;4.57;;;3.70;;
12844;SDS011;68700;48.534;9.196;2023-04-29T06:38:07;3.57;;;3.13;;
12844;SDS011;68700;48.534;9.196;2023-04-29T06:41:28;3.00;;;2.80;;
12844;SDS011;68700;48.534;9.196;2023-04-29T06:44:52;2.77;;;2.30;;
12844;SDS011;68700;48.534;9.196;2023-04-29T06:48:14;2.23;;;2.03;;
12844;SDS011;68700;48.534;9.196;2023-04-29T06:51:36;2.40;;;2.20;;
12844;SDS011;68700;48.534;9.196;2023-04-29T06:54:58;2.10;;;1.90;;
12844;SDS011;68700;48.534;9.196;2023-04-29T06:58:20;2.27;;;1.97;;
12844;SDS011;68700;48.534;9.196;2023-04-29T07:01:44;1.70;;;1.60;;
12844;SDS011;68700;48.534;9.196;2023-04-29T07:05:06;1.60;;;1.50;;
12844;SDS011;68700;48.534;9.196;2023-04-29T07:08:28;1.50;;;1.40;;
12844;SDS011;68700;48.534;9.196;2023-04-29T07:11:51;2.10;;;1.90;;
12844;SDS011;68700;48.534;9.196;2023-04-29T07:15:13;1.77;;;1.67;;
12844;SDS011;68700;48.534;9.196;2023-04-29T07:18:36;1.97;;;1.77;;
12844;SDS011;68700;48.534;9.196;2023-04-29T07:21:58;2.43;;;1.50;;
12844;SDS011;68700;48.534;9.196;2023-04-29T07:25:19;2.27;;;1.37;;
12844;SDS011;68700;48.534;9.196;2023-04-29T07:28:42;2.63;;;1.50;;
12844;SDS011;68700;48.534;9.196;2023-04-29T07:32:04;1.73;;;1.50;;
12844;SDS011;68700;48.534;9.196;2023-04-29T07:35:28;1.80;;;1.70;;
12844;SDS011;68700;48.534;9.196;2023-04-29T07:38:50;1.50;;;1.40;;
12844;SDS011;68700;48.534;9.196;2023-04-29T07:42:12;2.23;;;1.40;;
12844;SDS011;68700;48.534;9.196;2023-04-29T07:45:34;1.50;;;1.40;;
12844;SDS011;68700;48.534;9.196;2023-04-29T07:48:56;1.90;;;1.40;;
12844;SDS011;68700;48.534;9.196;2023-04-29T07:52:19;2.50;;;1.37;;
12844;SDS011;68700;48.534;9.196;2023-04-29T07:55:41;1.60;;;1.50;;
12844;SDS011;68700;48.534;9.196;2023-04-29T07:59:03;1.43;;;1.20;;
12844;SDS011;68700;48.534;9.196;2023-04-29T08:02:25;1.40;;;1.30;;
12844;SDS011;68700;48.534;9.196;2023-04-29T08:05:47;1.70;;;1.60;;
12844;SDS011;68700;48.534;9.196;2023-04-29T08:09:11;1.50;;;1.40;;
12844;SDS011;68700;48.534;9.196;2023-04-29T08:12:35;2.17;;;1.40;;
12844;SDS011;68700;48.534;9.196;2023-04-29T08:15:57;1.43;;;1.33;;
12844;SDS011;68700;48.534;9.196;2023-04-29T08:19:19;1.60;;;1.30;;
12844;SDS011;68700;48.534;9.196;2023-04-29T08:22:41;1.50;;;1.40;;
12844;SDS011;68700;48.534;9.196;2023-04-29T08:26:04;1.40;;;1.30;;
12844;SDS011;68700;48.534;9.196;2023-04-29T08:29:26;1.67;;;1.30;;
12844;SDS011;68700;48.534;9.196;2023-04-29T08:32:51;1.80;;;1.20;;
12844;SDS011;68700;48.534;9.196;2023-04-29T08:36:13;1.40;;;1.30;;
12844;SDS011;68700;48.534;9.196;2023-04-29T08:39:35;1.20;;;1.10;;
12844;SDS011;68700;48.534;9.196;2023-04-29T08:42:58;1.33;;;1.20;;
12844;SDS011;68700;48.534;9.196;2023-04-29T08:46:21;1.57;;;1.47;;
12844;SDS011;68700;48.534;9.196;2023-04-29T08:49:45;1.43;;;1.33;;
12844;SDS011;68700;48.534;9.196;2023-04-29T08:53:08;1.47;;;1.37;;
12844;SDS011;68700;48.534;9.196;2023-04-29T08:56:31;1.33;;;1.23;;
12844;SDS011;68700;48.534;9.196;2023-04-29T08:59:54;1.30;;;1.20;;
12844;SDS011;68700;48.534;9.196;2023-04-29T09:03:17;2.13;;;1.20;;
12844;SDS011;68700;48.534;9.196;2023-04-29T09:06:45;1.50;;;1.10;;
12844;SDS011;68700;48.534;9.196;2023-04-29T09:10:08;1.00;;;0.90;;
12844;SDS011;68700;48.534;9.196;2023-04-29T09:13:31;1.00;;;1.00;;
12844;SDS011;68700;48.534;9.196;2023-04-29T09:16:54;1.07;;;1.00;;
12844;SDS011;68700;48.534;9.196;2023-04-29T09:20:26;1.47;;;0.97;;
12844;SDS011;68700;48.534;9.196;2023-04-29T09:23:50;1.57;;;1.10;;
12844;SDS011;68700;48.534;9.196;2023-04-29T09:27:24;1.10;;;1.00;;
12844;SDS011;68700;48.534;9.196;2023-04-29T09:30:48;3.87;;;1.13;;
12844;SDS011;68700;48.534;9.196;2023-04-29T09:34:12;1.00;;;1.00;;
12844;SDS011;68700;48.534;9.196;2023-04-29T09:37:35;1.20;;;1.10;;
12844;SDS011;68700;48.534;9.196;2023-04-29T09:40:57;1.30;;;1.20;;
12844;SDS011;68700;48.534;9.196;2023-04-29T09:44:20;1.30;;;1.20;;
12844;SDS011;68700;48.534;9.196;2023-04-29T09:47:43;1.47;;;1.30;;
12844;SDS011;68700;48.534;9.196;2023-04-29T09:51:07;1.00;;;0.90;;
12844;SDS011;68700;48.534;9.196;2023-04-29T09:54:29;1.00;;;1.00;;
12844;SDS011;68700;48.534;9.196;2023-04-29T09:57:52;1.10;;;1.07;;
12844;SDS011;68700;48.534;9.196;2023-04-29T10:01:14;1.27;;;1.17;;
12844;SDS011;68700;48.534;9.196;2023-04-29T10:04:39;1.20;;;1.03;;
12844;SDS011;68700;48.534;9.196;2023-04-29T10:08:04;1.27;;;1.17;;
12844;SDS011;68700;48.534;9.196;2023-04-29T10:11:26;1.30;;;1.20;;
12844;SDS011;68700;48.534;9.196;2023-04-29T10:14:49;1.40;;;1.30;;
12844;SDS011;68700;48.534;9.196;2023-04-29T10:18:18;1.30;;;1.20;;
12844;SDS011;68700;48.534;9.196;2023-04-29T10:21:46;1.63;;;1.37;;
12844;SDS011;68700;48.534;9.196;2023-04-29T10:25:10;2.17;;;1.10;;
12844;SDS011;68700;48.534;9.196;2023-04-29T10:28:33;1.10;;;1.10;;
12844;SDS011;68700;48.534;9.196;2023-04-29T10:31:57;1.10;;;1.10;;
12844;SDS011;68700;48.534;9.196;2023-04-29T10:35:20;1.50;;;1.20;;
12844;SDS011;68700;48.534;9.196;2023-04-29T10:38:45;2.90;;;1.40;;
12844;SDS011;68700;48.534;9.196;2023-04-29T10:42:19;1.67;;;1.20;;
12844;SDS011;68700;48.534;9.196;2023-04-29T10:45:56;1.90;;;1.30;;
12844;SDS011;68700;48.534;9.196;2023-04-29T10:49:37;1.00;;;1.00;;
12844;SDS011;68700;48.534;9.196;2023-04-29T10:53:00;2.10;;;1.20;;
12844;SDS011;68700;48.534;9.196;2023-04-29T10:56:23;1.30;;;1.20;;
12844;SDS011;68700;48.534;9.196;2023-04-29T10:59:58;1.10;;;1.10;;
12844;SDS011;68700;48.534;9.196;2023-04-29T11:07:06;1.57;;;1.20;;
12844;SDS011;68700;48.534;9.196;2023-04-29T11:10:34;1.73;;;1.40;;
12844;SDS011;68700;48.534;9.196;2023-04-29T11:14:09;1.90;;;1.20;;
12844;SDS011;68700;48.534;9.196;2023-04-29T11:17:36;2.67;;;1.50;;
12844;SDS011;68700;48.534;9.196;2023-04-29T11:21:10;1.30;;;1.20;;
12844;SDS011;68700;48.534;9.196;2023-04-29T11:24:33;1.67;;;1.20;;
12844;SDS011;68700;48.534;9.196;2023-04-29T11:27:55;2.50;;;1.20;;
12844;SDS011;68700;48.534;9.196;2023-04-29T11:31:18;1.30;;;1.20;;
12844;SDS011;68700;48.534;9.196;2023-04-29T11:34:42;1.93;;;1.40;;
12844;SDS011;68700;48.534;9.196;2023-04-29T11:38:04;1.30;;;1.20;;
12844;SDS011;68700;48.534;9.196;2023-04-29T11:41:30;1.37;;;1.30;;
12844;SDS011;68700;48.534;9.196;2023-04-29T11:44:54;1.47;;;1.37;;
12844;SDS011;68700;48.534;9.196;2023-04-29T11:48:19;1.60;;;1.50;;
12844;SDS011;68700;48.534;9.196;2023-04-29T11:51:43;1.80;;;1.40;;
12844;SDS011;68700;48.534;9.196;2023-04-29T11:55:06;1.40;;;1.27;;
12844;SDS011;68700;48.534;9.196;2023-04-29T11:58:30;1.97;;;1.37;;
12844;SDS011;68700;48.534;9.196;2023-04-29T12:01:52;3.23;;;1.50;;
12844;SDS011;68700;48.534;9.196;2023-04-29T12:05:14;1.40;;;1.30;;
12844;SDS011;68700;48.534;9.196;2023-04-29T12:08:39;2.30;;;1.50;;
12844;SDS011;68700;48.534;9.196;2023-04-29T12:12:01;1.40;;;1.30;;
12844;SDS011;68700;48.534;9.196;2023-04-29T12:15:23;1.63;;;1.53;;
12844;SDS011;68700;48.534;9.196;2023-04-29T12:18:45;1.30;;;1.20;;
12844;SDS011;68700;48.534;9.196;2023-04-29T12:22:07;1.97;;;1.40;;
12844;SDS011;68700;48.534;9.196;2023-04-29T12:25:30;2.10;;;1.90;;
12844;SDS011;68700;48.534;9.196;2023-04-29T12:28:53;2.37;;;1.50;;
12844;SDS011;68700;48.534;9.196;2023-04-29T12:32:17;1.70;;;1.60;;
12844;SDS011;68700;48.534;9.196;2023-04-29T12:35:42;2.77;;;1.70;;
12844;SDS011;68700;48.534;9.196;2023-04-29T12:39:04;2.63;;;1.80;;
12844;SDS011;68700;48.534;9.196;2023-04-29T12:42:32;1.80;;;1.70;;
12844;SDS011;68700;48.534;9.196;2023-04-29T12:45:54;2.07;;;1.40;;
12844;SDS011;68700;48.534;9.196;2023-04-29T12:49:23;1.47;;;1.30;;
12844;SDS011;68700;48.534;9.196;2023-04-29T12:52:45;1.80;;;1.60;;
12844;SDS011;68700;48.534;9.196;2023-04-29T12:56:10;2.00;;;1.70;;
12844;SDS011;68700;48.534;9.196;2023-04-29T12:59:33;1.93;;;1.77;;
12844;SDS011;68700;48.534;9.196;2023-04-29T13:02:56;3.57;;;1.80;;
12844;SDS011;68700;48.534;9.196;2023-04-29T13:06:18;2.57;;;1.60;;
12844;SDS011;68700;48.534;9.196;2023-04-29T13:09:39;2.50;;;1.80;;
12844;SDS011;68700;48.534;9.196;2023-04-29T13:13:01;1.70;;;1.60;;
12844;SDS011;68700;48.534;9.196;2023-04-29T13:16:25;2.00;;;1.87;;
12844;SDS011;68700;48.534;9.196;2023-04-29T13:19:47;1.93;;;1.77;;
12844;SDS011;68700;48.534;9.196;2023-04-29T13:23:10;1.93;;;1.70;;
12844;SDS011;68700;48.534;9.196;2023-04-29T13:26:32;2.23;;;1.60;;
12844;SDS011;68700;48.534;9.196;2023-04-29T13:29:54;2.90;;;1.80;;
12844;SDS011;68700;48.534;9.196;2023-04-29T13:33:18;1.57;;;1.47;;
12844;SDS011;68700;48.534;9.196;2023-04-29T13:36:40;3.63;;;3.00;;
12844;SDS011;68700;48.534;9.196;2023-04-29T13:40:02;2.40;;;2.20;;
12844;SDS011;68700;48.534;9.196;2023-04-29T13:43:26;4.10;;;3.00;;
12844;SDS011;68700;48.534;9.196;2023-04-29T13:46:48;4.07;;;2.80;;
12844;SDS011;68700;48.534;9.196;2023-04-29T13:50:12;3.53;;;3.10;;
12844;SDS011;68700;48.534;9.196;2023-04-29T13:53:34;4.43;;;2.70;;
12844;SDS011;68700;48.534;9.196;2023-04-29T13:56:56;3.37;;;2.90;;
12844;SDS011;68700;48.534;9.196;2023-04-29T14:00:17;4.03;;;3.63;;
12844;SDS011;68700;48.534;9.196;2023-04-29T14:03:40;3.27;;;3.07;;
12844;SDS011;68700;48.534;9.196;2023-04-29T14:07:04;4.17;;;2.97;;
12844;SDS011;68700;48.534;9.196;2023-04-29T14:10:25;3.40;;;3.10;;
12844;SDS011;68700;48.534;9.196;2023-04-29T14:13:47;3.40;;;3.10;;
12844;SDS011;68700;48.534;9.196;2023-04-29T14:17:10;35.93;;;17.90;;
12844;SDS011;68700;48.534;9.196;2023-04-29T14:20:34;10.53;;;6.23;;
12844;SDS011;68700;48.534;9.196;2023-04-29T14:23:58;3.50;;;3.20;;
12844;SDS011;68700;48.534;9.196;2023-04-29T14:27:21;36.53;;;18.03;;
12844;SDS011;68700;48.534;9.196;2023-04-29T14:30:43;3.63;;;3.20;;
12844;SDS011;68700;48.534;9.196;2023-04-29T14:34:05;3.97;;;3.07;;
12844;SDS011;68700;48.534;9.196;2023-04-29T14:37:27;3.83;;;3.47;;
12844;SDS011;68700;48.534;9.196;2023-04-29T14:40:51;5.40;;;3.70;;
12844;SDS011;68700;48.534;9.196;2023-04-29T14:44:13;5.80;;;3.93;;
12844;SDS011;68700;48.534;9.196;2023-04-29T14:47:35;6.27;;;3.93;;
12844;SDS011;68700;48.534;9.196;2023-04-29T14:50:57;4.50;;;4.00;;
12844;SDS011;68700;48.534;9.196;2023-04-29T14:54:19;5.10;;;4.27;;
12844;SDS011;68700;48.534;9.196;2023-04-29T14:57:43;4.30;;;3.80;;
12844;SDS011;68700;48.534;9.196;2023-04-29T15:01:04;4.50;;;4.10;;
12844;SDS011;68700;48.534;9.196;2023-04-29T15:04:27;5.40;;;4.20;;
12844;SDS011;68700;48.534;9.196;2023-04-29T15:07:49;4.77;;;4.37;;
12844;SDS011;68700;48.534;9.196;2023-04-29T15:11:11;6.93;;;4.40;;
12844;SDS011;68700;48.534;9.196;2023-04-29T15:14:34;6.10;;;5.27;;
12844;SDS011;68700;48.534;9.196;2023-04-29T15:17:56;6.93;;;5.23;;
12844;SDS011;68700;48.534;9.196;2023-04-29T15:21:18;8.03;;;5.77;;
12844;SDS011;68700;48.534;9.196;2023-04-29T15:24:41;9.07;;;5.40;;
12844;SDS011;68700;48.534;9.196;2023-04-29T15:28:02;6.53;;;5.03;;
12844;SDS011;68700;48.534;9.196;2023-04-29T15:31:26;6.03;;;5.43;;
12844;SDS011;68700;48.534;9.196;2023-04-29T15:34:48;5.60;;;4.83;;
12844;SDS011;68700;48.534;9.196;2023-04-29T15:38:10;6.00;;;5.40;;
12844;SDS011;68700;48.534;9.196;2023-04-29T15:41:32;9.47;;;6.67;;
12844;SDS011;68700;48.534;9.196;2023-04-29T15:44:55;6.33;;;5.73;;
12844;SDS011;68700;48.534;9.196;2023-04-29T15:48:18;6.20;;;5.60;;
12844;SDS011;68700;48.534;9.196;2023-04-29T15:51:41;7.00;;;6.30;;
12844;SDS011;68700;48.534;9.196;2023-04-29T15:55:03;6.17;;;5.57;;
12844;SDS011;68700;48.534;9.196;2023-04-29T15:58:25;8.53;;;6.30;;
12844;SDS011;68700;48.534;9.196;2023-04-29T16:01:47;5.93;;;5.43;;
12844;SDS011;68700;48.534;9.196;2023-04-29T16:05:10;6.67;;;6.07;;
12844;SDS011;68700;48.534;9.196;2023-04-29T16:08:32;7.27;;;6.50;;
12844;SDS011;68700;48.534;9.196;2023-04-29T16:11:54;7.20;;;6.50;;
12844;SDS011;68700;48.534;9.196;2023-04-29T16:15:17;7.00;;;6.30;;
12844;SDS011;68700;48.534;9.196;2023-04-29T16:18:39;6.23;;;5.40;;
12844;SDS011;68700;48.534;9.196;2023-04-29T16:22:03;8.27;;;6.43;;
12844;SDS011;68700;48.534;9.196;2023-04-29T16:25:25;7.40;;;6.70;;
12844;SDS011;68700;48.534;9.196;2023-04-29T16:28:46;7.13;;;6.43;;
12844;SDS011;68700;48.534;9.196;2023-04-29T16:32:08;7.87;;;6.60;;
12844;SDS011;68700;48.534;9.196;2023-04-29T16:35:30;7.07;;;5.60;;
12844;SDS011;68700;48.534;9.196;2023-04-29T16:38:54;7.00;;;6.30;;
12844;SDS011;68700;48.534;9.196;2023-04-29T16:42:17;7.33;;;6.60;;
12844;SDS011;68700;48.534;9.196;2023-04-29T16:45:38;6.13;;;5.50;;
12844;SDS011;68700;48.534;9.196;2023-04-29T16:49:01;8.67;;;6.90;;
12844;SDS011;68700;48.534;9.196;2023-04-29T16:52:23;8.03;;;7.23;;
12844;SDS011;68700;48.534;9.196;2023-04-29T16:55:46;8.03;;;7.17;;
12844;SDS011;68700;48.534;9.196;2023-04-29T16:59:08;7.63;;;6.93;;
12844;SDS011;68700;48.534;9.196;2023-04-29T17:02:31;7.50;;;6.40;;
12844;SDS011;68700;48.534;9.196;2023-04-29T17:05:53;8.10;;;7.17;;
12844;SDS011;68700;48.534;9.196;2023-04-29T17:09:15;7.10;;;6.40;;
12844;SDS011;68700;48.534;9.196;2023-04-29T17:12:38;6.87;;;5.90;;
12844;SDS011;68700;48.534;9.196;2023-04-29T17:16:00;7.13;;;6.47;;
12844;SDS011;68700;48.534;9.196;2023-04-29T17:19:22;7.50;;;6.10;;
12844;SDS011;68700;48.534;9.196;2023-04-29T17:22:44;6.80;;;6.10;;
12844;SDS011;68700;48.534;9.196;2023-04-29T17:26:06;11.63;;;6.23;;
12844;SDS011;68700;48.534;9.196;2023-04-29T17:29:29;10.97;;;7.37;;
12844;SDS011;68700;48.534;9.196;2023-04-29T17:32:51;6.60;;;6.00;;
12844;SDS011;68700;48.534;9.196;2023-04-29T17:36:13;8.97;;;6.80;;
12844;SDS011;68700;48.534;9.196;2023-04-29T17:39:35;7.73;;;6.40;;
12844;SDS011;68700;48.534;9.196;2023-04-29T17:42:57;7.57;;;6.50;;
12844;SDS011;68700;48.534;9.196;2023-04-29T17:46:20;7.40;;;6.60;;
12844;SDS011;68700;48.534;9.196;2023-04-29T17:49:42;6.73;;;5.93;;
12844;SDS011;68700;48.534;9.196;2023-04-29T17:53:04;7.47;;;6.37;;
12844;SDS011;68700;48.534;9.196;2023-04-29T17:56:25;7.17;;;6.47;;
12844;SDS011;68700;48.534;9.196;2023-04-29T17:59:47;7.07;;;6.37;;
12844;SDS011;68700;48.534;9.196;2023-04-29T18:03:11;6.70;;;6.00;;
12844;SDS011;68700;48.534;9.196;2023-04-29T18:06:33;7.37;;;6.37;;
12844;SDS011;68700;48.534;9.196;2023-04-29T18:09:55;7.80;;;6.47;;
12844;SDS011;68700;48.534;9.196;2023-04-29T18:13:16;7.93;;;7.10;;
12844;SDS011;68700;48.534;9.196;2023-04-29T18:16:38;7.13;;;6.43;;
12844;SDS011;68700;48.534;9.196;2023-04-29T18:20:02;7.53;;;6.83;;
12844;SDS011;68700;48.534;9.196;2023-04-29T18:23:25;7.20;;;6.50;;
12844;SDS011;68700;48.534;9.196;2023-04-29T18:26:47;6.77;;;6.03;;
12844;SDS011;68700;48.534;9.196;2023-04-29T18:30:09;8.57;;;6.33;;
12844;SDS011;68700;48.534;9.196;2023-04-29T18:33:31;6.73;;;6.07;;
12844;SDS011;68700;48.534;9.196;2023-04-29T18:36:56;6.90;;;6.10;;
12844;SDS011;68700;48.534;9.196;2023-04-29T18:40:18;7.47;;;6.53;;
12844;SDS011;68700;48.534;9.196;2023-04-29T18:43:40;6.37;;;5.77;;
12844;SDS011;68700;48.534;9.196;2023-04-29T18:47:02;7.37;;;5.67;;
12844;SDS011;68700;48.534;9.196;2023-04-29T18:50:24;6.10;;;5.20;;
12844;SDS011;68700;48.534;9.196;2023-04-29T18:53:47;5.80;;;5.20;;
12844;SDS011;68700;48.534;9.196;2023-04-29T18:57:10;9.67;;;6.37;;
12844;SDS011;68700;48.534;9.196;2023-04-29T19:00:32;7.43;;;5.63;;
12844;SDS011;68700;48.534;9.196;2023-04-29T19:03:54;6.17;;;5.57;;
12844;SDS011;68700;48.534;9.196;2023-04-29T19:07:16;7.20;;;6.50;;
12844;SDS011;68700;48.534;9.196;2023-04-29T19:10:39;5.90;;;5.27;;
12844;SDS011;68700;48.534;9.196;2023-04-29T19:14:01;7.03;;;5.83;;
12844;SDS011;68700;48.534;9.196;2023-04-29T19:17:23;6.47;;;5.70;;
12844;SDS011;68700;48.534;9.196;2023-04-29T19:20:45;6.47;;;5.60;;
12844;SDS011;68700;48.534;9.196;2023-04-29T19:24:07;6.13;;;5.53;;
12844;SDS011;68700;48.534;9.196;2023-04-29T19:27:31;6.90;;;6.23;;
12844;SDS011;68700;48.534;9.196;2023-04-29T19:30:53;7.27;;;6.00;;
12844;SDS011;68700;48.534;9.196;2023-04-29T19:34:15;8.17;;;6.93;;
12844;SDS011;68700;48.534;9.196;2023-04-29T19:37:37;7.07;;;6.37;;
12844;SDS011;68700;48.534;9.196;2023-04-29T19:40:59;8.30;;;7.10;;
12844;SDS011;68700;48.534;9.196;2023-04-29T19:44:22;7.80;;;6.13;;
12844;SDS011;68700;48.534;9.196;2023-04-29T19:47:44;7.23;;;6.40;;
12844;SDS011;68700;48.534;9.196;2023-04-29T19:51:07;7.37;;;6.60;;
12844;SDS011;68700;48.534;9.196;2023-04-29T19:54:30;9.77;;;7.30;;
12844;SDS011;68700;48.534;9.196;2023-04-29T19:57:53;7.40;;;6.53;;
12844;SDS011;68700;48.534;9.196;2023-04-29T20:01:17;10.10;;;7.40;;
12844;SDS011;68700;48.534;9.196;2023-04-29T20:04:39;10.93;;;8.10;;
12844;SDS011;68700;48.534;9.196;2023-04-29T20:08:01;7.40;;;6.43;;
12844;SDS011;68700;48.534;9.196;2023-04-29T20:11:24;7.27;;;6.47;;
12844;SDS011;68700;48.534;9.196;2023-04-29T20:14:46;7.87;;;6.93;;
12844;SDS011;68700;48.534;9.196;2023-04-29T20:18:09;7.73;;;6.60;;
12844;SDS011;68700;48.534;9.196;2023-04-29T20:21:31;6.80;;;6.10;;
12844;SDS011;68700;48.534;9.196;2023-04-29T20:24:53;6.93;;;6.17;;
12844;SDS011;68700;48.534;9.196;2023-04-29T20:28:15;7.70;;;6.90;;